Laurence M. Gould — WCX7445 — position and weather

sailwx.info

Track history (hours):
 
Tides and Currents Weather Stations Pressure Air Temp Water Temp Dewpoint Dewpoint Depression Visibility Wind Speed Wind Dir Waves Ship Positions

Oceanographic research ship Laurence M. Gould (USA)

Detailed information on ship capabilities available from University of Delaware's Ocean Information Center.

Owner: Offshore Service Vessels LLC, Cut Off, LA. More information available from US FCC via Universal Licensing System and Coast Guard Vessel Documentation Center.

Last reported at 2018-May-28 00:00 UTC. Time now 2018-May-28 01:23 UTC.
Position S 65°12' W 064°12'.

Type: Ship. MMSI: 368138000.

Wind from 020 at 18 knots

Barometer 980.1 mb
Air temperature -3.1 ° C
Dewpoint -10.2 ° C
Water temperature -1.5 ° C

Date/timePositionNaut miles runAvg speedWind from/ knotsBaromVisibWave heightAir tempDewpointWater temp
2018-May-28 00:00S 65°12' W 064°12'0 0.0 020 / 18980.1 -3.1-10.2-1.5
2018-May-27 23:00S 65°12' W 064°12'0 0.0 020 / 16980.0 -4.1-9.7-1.5
2018-May-27 22:00S 65°12' W 064°12'6 6.0 020 / 18979.8 -4.1-9.3-1.4
2018-May-27 21:00S 65°06' W 064°12'5 5.1 040 / 31978.3 -5.1-7.1-0.7
2018-May-27 20:00S 65°06' W 064°24'1212.0 030 / 28978.7 -4.1-8.4-0.5
2018-May-27 19:00S 64°54' W 064°24'10 9.7 060 / 20978.5 -4.0-9.2-0.6
2018-May-27 18:00S 64°48' W 064°06'7 6.5 060 / 23977.3 -3.7-9.5-0.7
2018-May-27 17:00S 64°42' W 064°00'0 0.0 070 / 21976.6 -3.4-9.4-0.8
2018-May-27 16:00S 64°42' W 064°00'8 7.9 090 / 24976.2 -3.6-9.2-0.7
2018-May-27 15:00S 64°48' W 063°48'1211.9 070 / 34976.6 -5.1-8.5-0.4
2018-May-27 14:00S 64°42' W 063°24'1010.3 060 / 35977.6 -5.3-8.2-0.6
2018-May-27 13:00S 64°42' W 063°00'1414.3 070 / 36978.2 -5.4-8.1-0.7
2018-May-27 12:00S 64°30' W 062°42'1010.3 060 / 32978.8 -5.3-7.8-1.0
2018-May-27 11:00S 64°30' W 062°18'7 6.5 070 / 24979.3 -5.5-7.7-1.0
2018-May-27 10:00S 64°24' W 062°12'8 7.9 060 / 23979.6 -5.6-7.4-1.1
2018-May-27 09:00S 64°18' W 062°00'7 6.5 060 / 14980.3 -6.1-8.4-1.3
2018-May-27 08:00S 64°12' W 061°54'3 2.6 050 / 11980.6 -5.5-8.2-1.5
2018-May-27 07:00S 64°12' W 061°48'1212.3 060 / 9980.7 -5.0-8.5-1.3
2018-May-27 06:00S 64°00' W 061°42'7 6.6 080 / 13980.6 -4.9-8.4-1.3
2018-May-27 05:00S 63°54' W 061°36'1414.4 080 / 14981.0 -4.6-7.7-1.4
2018-May-27 04:00S 63°42' W 061°18'8 8.0 070 / 17981.2 -4.7-7.1-1.2
2018-May-27 03:00S 63°36' W 061°06'1414.4 080 / 14981.8 -4.7-7.4-1.3
2018-May-27 02:00S 63°24' W 060°48'1010.1 060 / 13982.2 -4.7-7.5-1.4
2018-May-27 01:00S 63°18' W 060°30'7 6.6 060 / 13982.4 -5.3-8.4-1.7
2018-May-27 00:00S 63°12' W 060°24'8 8.1 080 / 11982.7 -4.6-8.4-1.7
2018-May-26 23:00S 63°06' W 060°12'3 2.7 090 / 12982.8 -4.5-7.8-1.7
2018-May-26 22:00S 63°06' W 060°06'8 8.1 100 / 13982.9 -4.6-7.0-1.8
2018-May-26 21:00S 63°00' W 059°54'7 6.6 120 / 12983.0 -5.2-6.6-1.7
2018-May-26 20:00S 62°54' W 059°48'8 8.1 120 / 12983.0 -5.4-6.6-1.7
2018-May-26 19:00S 62°48' W 059°36'1010.2 120 / 13983.0 -4.8-6.7-1.6
2018-May-26 18:00S 62°42' W 059°18'1313.2 100 / 16983.0 -4.2-6.2-1.6
2018-May-26 17:00S 62°30' W 059°06'1010.3 110 / 15983.2 -3.7-6.0-1.1
2018-May-26 16:00S 62°24' W 058°48'1212.3 080 / 9983.6 -3.7-8.4-0.2
2018-May-26 15:00S 62°12' W 058°42'6 5.6 070 / 7983.8 -4.8-8.7-0.4
2018-May-26 14:00S 62°12' W 058°54'0 0.0 090 / 8984.4 -4.9-8.6-0.2
2018-May-26 13:00S 62°12' W 058°54'3 2.8 120 / 8984.9 -5.6-7.4-0.4
2018-May-26 12:00S 62°12' W 058°48'7 6.6 120 / 11985.2 -5.0-8.7-0.2
2018-May-26 11:00S 62°18' W 058°42'0 0.0 120 / 6985.8 -4.3-10.9-0.2
2018-May-26 10:00S 62°18' W 058°42'7 6.6 130 / 5986.6 -4.3-9.8-0.3
2018-May-26 09:00S 62°24' W 058°48'0 0.0 150 / 6987.0 -4.5-8.4-0.2
2018-May-26 08:00S 62°24' W 058°48'0 0.0 180 / 5987.4 -4.4-7.3-0.2
2018-May-26 07:00S 62°24' W 058°48'7 6.6 220 / 8987.9 -3.0-8.0-0.1
2018-May-26 06:00S 62°18' W 058°42'0 0.0 230 / 6988.0 -2.5-9.7-0.1
2018-May-26 05:00S 62°18' W 058°42'7 6.6 230 / 8988.4 -3.6-8.9-0.1
2018-May-26 04:00S 62°24' W 058°48'0 0.0 250 / 8989.0 -2.8-8.8-0.1
2018-May-26 03:00S 62°24' W 058°48'7 6.6 260 / 12989.2 -3.0-8.4-0.1
2018-May-26 02:00S 62°18' W 058°42'0 0.0 270 / 13989.5 -3.1-8.5-0.1
2018-May-26 01:00S 62°18' W 058°42'7 6.6 270 / 12990.1 -3.0-8.7-0.1
2018-May-26 00:00S 62°24' W 058°48'0 0.0 270 / 11990.5 -2.8-8.7-0.1
2018-May-25 23:00S 62°24' W 058°48'7 6.6 280 / 10990.9 -3.3-8.3-0.1
2018-May-25 22:00S 62°18' W 058°42'0 0.0 230 / 8991.1 -3.3-7.6-0.2
2018-May-25 21:00S 62°18' W 058°42'0 0.0 270 / 13991.4 -3.5-7.3-0.1
2018-May-25 20:00S 62°18' W 058°42'0 0.0 270 / 13991.7 -3.3-6.7-0.1
2018-May-25 19:00S 62°18' W 058°42'7 6.6 230 / 13992.1 -3.2-6.8-0.5
2018-May-25 18:00S 62°24' W 058°48'1010.3 240 / 14992.0 -3.2-8.0-1.4
2018-May-25 17:00S 62°30' W 059°06'1514.6 240 / 18992.0 -3.3-9.0-1.4
2018-May-25 16:00S 62°42' W 059°24'8 8.1 240 / 20992.0 -3.3-8.4-1.5
2018-May-25 15:00S 62°48' W 059°36'1514.5 240 / 20991.8 -3.3-8.6-1.7
2018-May-25 14:00S 63°00' W 059°54'1010.1 250 / 21991.5 -3.3-8.4-1.6
2018-May-25 13:00S 63°06' W 060°12'8 8.1 240 / 21991.1 -3.2-7.7-1.7
2018-May-25 12:00S 63°12' W 060°24'1414.5 240 / 20990.4 -2.9-8.0-1.4
2018-May-25 11:00S 63°24' W 060°42'8 8.0 230 / 13990.1 -2.8-8.7-1.2
2018-May-25 10:00S 63°30' W 060°54'1414.4 200 / 12990.0 -3.0-8.6-1.2
2018-May-25 09:00S 63°42' W 061°12'8 8.0 190 / 12989.6 -3.0-8.8-1.2
2018-May-25 08:00S 63°48' W 061°24'10 9.9 180 / 9989.3 -2.5-9.6-1.2
2018-May-25 07:00S 63°54' W 061°42'1212.3 230 / 9988.9 -2.8-9.8-1.2
2018-May-25 06:00S 64°06' W 061°48'1313.1 220 / 24988.3 -3.3-8.9-1.0
2018-May-25 05:00S 64°18' W 062°00'10 9.8 230 / 27988.0 -3.4-8.2-0.9
2018-May-25 04:00S 64°24' W 062°18'10 9.8 220 / 24988.2 -3.4-8.5-0.7
2018-May-25 03:00S 64°30' W 062°36'1211.9 230 / 26988.1 -3.7-7.5-0.6
2018-May-25 02:00S 64°36' W 063°00'1313.0 260 / 20987.9 -3.1-9.2-0.5
2018-May-25 01:00S 64°48' W 063°12'8 7.9 210 / 13987.3 -3.5-9.9-0.7
2018-May-25 00:00S 64°54' W 063°24'8 7.6 250 / 17986.9 -3.5-9.7-0.6
2018-May-24 23:00S 64°54' W 063°42'1313.0 210 / 14986.6 -3.7-10.9-0.6
2018-May-24 22:00S 65°06' W 063°54'3 2.5 210 / 18986.2 -3.8-9.7-0.9
2018-May-24 21:00S 65°06' W 064°00'8 7.8 180 / 14985.7 -3.7-9.8-1.3
2018-May-24 20:00S 65°12' W 064°12'0 0.0 200 / 19984.8 -2.8-8.8-1.3
2018-May-24 19:00S 65°12' W 064°12'0 0.0 230 / 20984.0 -2.8-9.2-1.3
2018-May-24 18:00S 65°12' W 064°12'8 7.8 230 / 18983.0 -2.4-9.0-1.3
2018-May-24 17:00S 65°06' W 064°00'7 6.5 230 / 11982.9 -2.7-10.8-1.1
2018-May-24 16:00S 65°00' W 063°54'8 7.9 230 / 13982.1 -3.1-11.8-0.7
2018-May-24 15:00S 64°54' W 063°42'7 6.5 250 / 18981.8 -3.6-10.6-0.4
2018-May-24 14:00S 64°48' W 063°48'8 7.9 250 / 18982.2 -4.6-11.2-0.4
2018-May-24 13:00S 64°42' W 064°00'0 0.0 250 / 19981.8 -4.2-12.2-0.1
2018-May-24 12:00S 64°42' W 064°00'0 0.0 250 / 19981.3 -4.4-12.3
2018-May-24 11:00S 64°42' W 064°00'0 0.0 240 / 18980.8 -4.2-11.6
2018-May-24 10:00S 64°42' W 064°00'0 0.0 260 / 19980.2 -3.9-10.2
2018-May-24 09:00S 64°42' W 064°00'0 0.0 260 / 19979.8 -3.6-9.2
2018-May-24 08:00S 64°42' W 064°00'0 0.0 250 / 19979.3 -4.0-6.1
2018-May-24 07:00S 64°42' W 064°00'0 0.0 310 / 14979.6 -3.2-6.6
2018-May-24 06:00S 64°42' W 064°00'0 0.0 290 / 18979.4 -2.5-7.2
2018-May-24 05:00S 64°42' W 064°00'0 0.0 280 / 20979.2 -2.5-5.2
2018-May-24 04:00S 64°42' W 064°00'0 0.0 280 / 27977.9 -2.4-3.5
2018-May-24 03:00S 64°42' W 064°00'0 0.0 010 / 26976.6 -0.7-2.4
2018-May-24 02:00S 64°42' W 064°00'0 0.0 050 / 15979.7 -1.6-2.8
2018-May-24 01:00S 64°42' W 064°00'0 0.0 010 / 17981.7 -0.7-2.8
2018-May-24 00:00S 64°42' W 064°00'0 0.0 350 / 16983.8 -0.8-2.6
2018-May-23 23:00S 64°42' W 064°00'0 0.0 010 / 25985.1 -1.1-3.2
2018-May-23 22:00S 64°42' W 064°00'0 0.0 020 / 29986.4 -1.3-4.6
2018-May-23 21:00S 64°42' W 064°00'0 0.0 020 / 33987.3 -1.8-5.0
2018-May-23 20:00S 64°42' W 064°00'0 0.0 020 / 36988.3 -2.4-5.9
2018-May-23 19:00S 64°42' W 064°00'0 0.0 020 / 29989.9 -2.5-7.0
2018-May-23 18:00S 64°42' W 064°00'0 0.0 020 / 23991.4 -2.8-7.6
2018-May-23 17:00S 64°42' W 064°00'0 0.0 020 / 17992.8 -3.1-8.2
2018-May-23 16:00S 64°42' W 064°00'0 0.0 040 / 11993.9 -3.8-8.5
2018-May-23 15:00S 64°42' W 064°00'0 0.0 360 / 7994.4 -3.5-8.6
2018-May-23 14:00S 64°42' W 064°00'0 0.0 320 / 4994.7 -3.0-8.7-0.5
2018-May-23 13:00S 64°42' W 064°00'7 6.5 240 / 6994.7 -3.3-9.0-0.4
2018-May-23 12:00S 64°48' W 063°54'5 5.1 250 / 12994.3 -3.3-9.0-0.4
2018-May-23 11:00S 64°48' W 063°42'5 5.1 260 / 16993.9 -3.1-8.5-0.3
2018-May-23 10:00S 64°48' W 063°30'8 7.9 250 / 17993.8 -2.4-7.7-0.3
2018-May-23 09:00S 64°42' W 063°18'5 5.1 240 / 20993.1 -2.7-6.8-0.5
2018-May-23 08:00S 64°42' W 063°06'8 7.9 250 / 26991.5 -2.8-6.6-0.4
2018-May-23 07:00S 64°36' W 062°54'8 7.9 240 / 25990.9 -1.9-5.5-0.5
2018-May-23 06:00S 64°30' W 062°42'1010.3 230 / 26989.8 -1.5-5.3-0.6
2018-May-23 05:00S 64°30' W 062°18'1313.1 240 / 29988.6 -0.9-4.5-0.7
2018-May-23 04:00S 64°18' W 062°06'8 7.9 230 / 25988.4 -0.2-3.4-0.9
2018-May-23 03:00S 64°12' W 061°54'7 6.5 210 / 8989.5 -0.8-2.3-1.4
2018-May-23 02:00S 64°06' W 061°48'7 6.5 090 / 7989.4 -0.9-2.8-1.2
2018-May-23 01:00S 64°00' W 061°42'1313.1 270 / 17988.6 -1.1-3.4-1.2
2018-May-23 00:00S 63°48' W 061°30'7 6.6 260 / 28988.9 -1.7-3.6-0.9
2018-May-22 23:00S 63°42' W 061°24'1212.0 260 / 31988.8 -1.7-3.4-0.9
2018-May-22 22:00S 63°30' W 061°24'1212.3 250 / 31988.6 -1.4-2.7-0.9
2018-May-22 21:00S 63°18' W 061°30'7 6.6 240 / 26989.7 -1.0-2.1-0.6
2018-May-22 20:00S 63°12' W 061°36'1313.2 240 / 26989.6 -0.7-1.4-0.1
2018-May-22 19:00S 63°00' W 061°48'1212.3 230 / 23989.7 -0.1-0.9-0.0
2018-May-22 18:00S 62°48' W 061°54'8 8.1 250 / 18990.4 -0.1-0.5-0.1
2018-May-22 17:00S 62°42' W 062°06'1313.2 240 / 20991.2 -0.5-0.9-0.0
2018-May-22 16:00S 62°30' W 062°18'7 6.6 250 / 21991.5 -0.7-1.0-0.0
2018-May-22 15:00S 62°24' W 062°24'1212.3 250 / 22991.6 -0.9-1.2-0.2
2018-May-22 14:00S 62°12' W 062°30'1212.3 250 / 20992.1 -1.0-1.2-0.1
2018-May-22 13:00S 62°00' W 062°36'6 6.0 250 / 21992.3 -0.7-1.0-0.1
2018-May-22 12:00S 61°54' W 062°36'1212.3 240 / 22992.4 -0.7-1.0-0.1
2018-May-22 11:00S 61°42' W 062°42'1212.0 250 / 21992.4 -0.7-1.0-0.1
2018-May-22 10:00S 61°30' W 062°42'1212.3 250 / 21992.5 -0.6-1.0-0.0
2018-May-22 09:00S 61°18' W 062°48'7 6.7 250 / 22992.5 -0.1-0.5 0.2
2018-May-22 08:00S 61°12' W 062°54'1212.0 260 / 21992.9 -0.0-0.4-0.0
2018-May-22 07:00S 61°00' W 062°54'1212.3 280 / 16993.5 -0.0-0.4-0.1
2018-May-22 06:00S 60°48' W 063°00'1212.0 280 / 14994.1 0.3-0.3-0.2
2018-May-22 05:00S 60°36' W 063°00'7 6.7 280 / 12994.6 0.1-0.4-0.2
2018-May-22 04:00S 60°30' W 063°06'1212.4 270 / 10994.7 -0.0-0.5-0.2
2018-May-22 03:00S 60°18' W 063°12'1212.0 270 / 10994.8 -0.0-0.5-0.2
2018-May-22 02:00S 60°06' W 063°12'1212.4 260 / 8994.7 0.4-0.3-0.2
2018-May-22 01:00S 59°54' W 063°18'7 6.7 260 / 9994.5 0.9-0.2-0.0
2018-May-22 00:00S 59°48' W 063°24'1212.0 260 / 6994.3 1.8 0.6 0.1
2018-May-21 23:00S 59°36' W 063°24'1212.4 290 / 6994.2 1.9 0.7 0.1
2018-May-21 22:00S 59°24' W 063°30'1212.0 310 / 7994.0 1.9 1.0 0.1
2018-May-21 21:00S 59°12' W 063°30'7 6.7 320 / 8993.8 2.2 1.1 0.4
2018-May-21 20:00S 59°06' W 063°36'1212.4 330 / 8993.4 3.1 1.6 0.9
2018-May-21 19:00S 58°54' W 063°42'1212.0 330 / 9993.4 4.0 2.3 2.5
2018-May-21 18:00S 58°42' W 063°42'1212.4 340 / 11993.5 4.3 2.7 3.2
2018-May-21 17:00S 58°30' W 063°48'408 9.5 330 / 10993.6 4.0 2.4 3.0
2018-May-19 22:00S 52°36' W 069°48'50 8.3 010 / 101001.4 6.9 4.2
2018-May-19 16:00S 53°06' W 070°54'0 0.0 020 / 41002.7 7.5 2.8
2018-May-19 15:00S 53°06' W 070°54'0 0.0 260 / 11003.3 5.9 2.1
2018-May-19 14:00S 53°06' W 070°54'0 0.0 290 / 21003.6 4.1 1.8
2018-May-19 13:00S 53°06' W 070°54'0 0.0 290 / 11004.0 2.8 1.0
2018-May-19 12:00S 53°06' W 070°54'0 0.0 280 / 31004.0 3.9 1.8
2018-May-19 11:00S 53°06' W 070°54'0 0.0 010 / 61004.1 4.1 2.1
2018-May-19 10:00S 53°06' W 070°54'0 0.0 030 / 71004.5 3.4 2.1
2018-May-19 09:00S 53°06' W 070°54'0 0.0 010 / 71005.2 4.0 2.5
2018-May-19 08:00S 53°06' W 070°54'0 0.0 010 / 121005.5 4.0 2.5
2018-May-19 07:00S 53°06' W 070°54'0 0.0 020 / 131006.4 3.9 2.5
2018-May-19 06:00S 53°06' W 070°54'0 0.0 030 / 141007.5 4.1 2.4
2018-May-19 05:00S 53°06' W 070°54'0 0.0 030 / 111008.9 3.7 1.6
2018-May-19 04:00S 53°06' W 070°54'0 0.0 030 / 101010.2 3.3 0.8
2018-May-19 03:00S 53°06' W 070°54'0 0.0 030 / 91011.3 3.3 0.7
2018-May-19 02:00S 53°06' W 070°54'0 0.0 020 / 51012.1 3.8 1.0
2018-May-19 01:00S 53°06' W 070°54'0 0.0 010 / 31013.0 3.6 0.7
2018-May-19 00:00S 53°06' W 070°54'0 0.0 350 / 51014.0 2.7-0.1
2018-May-18 23:00S 53°06' W 070°54'0 0.0 360 / 61014.8 2.0-0.5
2018-May-18 22:00S 53°06' W 070°54'0 0.0 030 / 91015.5 1.7-0.2
2018-May-18 21:00S 53°06' W 070°54'0 0.0 030 / 71015.8 2.0 0.1
2018-May-18 20:00S 53°06' W 070°54'0 0.0 040 / 81016.3 2.7 0.1
2018-May-18 19:00S 53°06' W 070°54'0 0.0 030 / 51016.7 3.3 0.4
2018-May-18 18:00S 53°06' W 070°54'0 0.0 040 / 61017.1 3.4 0.3
2018-May-18 17:00S 53°06' W 070°54'0 0.0 040 / 41017.5 4.1-0.0
2018-May-18 16:00S 53°06' W 070°54'0 0.0 040 / 51018.0 4.5 0.1
2018-May-18 15:00S 53°06' W 070°54'0 0.0 360 / 41018.1 6.4 0.6
2018-May-18 14:00S 53°06' W 070°54'0 0.0 350 / 51018.1 4.6 0.9
2018-May-18 13:00S 53°06' W 070°54'0 0.0 320 / 51017.8 3.1 0.9
2018-May-18 12:00S 53°06' W 070°54'0 0.0 330 / 31017.4 3.7 1.4
2018-May-18 11:00S 53°06' W 070°54'0 0.0 340 / 21017.0 3.0 0.7
2018-May-18 10:00S 53°06' W 070°54'0 0.0 320 / 11017.0 3.1 0.7
2018-May-18 09:00S 53°06' W 070°54'0 0.0 260 / 11016.7 3.3 0.6
2018-May-18 08:00S 53°06' W 070°54'0 0.0 270 / 21016.6 2.7 0.5
2018-May-18 07:00S 53°06' W 070°54'0 0.0 310 / 21016.1 2.0-0.0
2018-May-18 06:00S 53°06' W 070°54'0 0.0 310 / 21015.8 3.0 0.9
2018-May-18 05:00S 53°06' W 070°54'0 0.0 280 / 31015.4 3.6 1.4
2018-May-18 04:00S 53°06' W 070°54'0 0.0 270 / 41015.2 4.9 1.8
2018-May-18 03:00S 53°06' W 070°54'0 0.0 230 / 51015.0 5.6 2.2
2018-May-18 02:00S 53°06' W 070°54'0 0.0 240 / 51014.7 5.3 1.8
2018-May-18 01:00S 53°06' W 070°54'0 0.0 240 / 51014.4 4.9 1.6
2018-May-18 00:00S 53°06' W 070°54'   230 / 51014.3 4.9 1.4
Track history (hours):
 
Tides and Currents Weather Stations Pressure Air Temp Water Temp Dewpoint Dewpoint Depression Visibility Wind Speed Wind Dir Waves Ship Positions

Oceanographic research ship Laurence M. Gould (USA)

Detailed information on ship capabilities available from University of Delaware's Ocean Information Center.

Owner: Offshore Service Vessels LLC, Cut Off, LA. More information available from US FCC via Universal Licensing System and Coast Guard Vessel Documentation Center.

Last reported at 2018-May-28 00:00 UTC. Time now 2018-May-28 01:23 UTC.
Position S 65°12' W 064°12'.

Type: Ship. MMSI: 368138000.

Wind from 020 at 18 knots

Barometer 980.1 mb
Air temperature -3.1 ° C
Dewpoint -10.2 ° C
Water temperature -1.5 ° C

Date/timePositionNaut miles runAvg speedWind from/ knotsBaromVisibWave heightAir tempDewpointWater temp
2018-May-28 00:00S 65°12' W 064°12'0 0.0 020 / 18980.1 -3.1-10.2-1.5
2018-May-27 23:00S 65°12' W 064°12'0 0.0 020 / 16980.0 -4.1-9.7-1.5
2018-May-27 22:00S 65°12' W 064°12'6 6.0 020 / 18979.8 -4.1-9.3-1.4
2018-May-27 21:00S 65°06' W 064°12'5 5.1 040 / 31978.3 -5.1-7.1-0.7
2018-May-27 20:00S 65°06' W 064°24'1212.0 030 / 28978.7 -4.1-8.4-0.5
2018-May-27 19:00S 64°54' W 064°24'10 9.7 060 / 20978.5 -4.0-9.2-0.6
2018-May-27 18:00S 64°48' W 064°06'7 6.5 060 / 23977.3 -3.7-9.5-0.7
2018-May-27 17:00S 64°42' W 064°00'0 0.0 070 / 21976.6 -3.4-9.4-0.8
2018-May-27 16:00S 64°42' W 064°00'8 7.9 090 / 24976.2 -3.6-9.2-0.7
2018-May-27 15:00S 64°48' W 063°48'1211.9 070 / 34976.6 -5.1-8.5-0.4
2018-May-27 14:00S 64°42' W 063°24'1010.3 060 / 35977.6 -5.3-8.2-0.6
2018-May-27 13:00S 64°42' W 063°00'1414.3 070 / 36978.2 -5.4-8.1-0.7
2018-May-27 12:00S 64°30' W 062°42'1010.3 060 / 32978.8 -5.3-7.8-1.0
2018-May-27 11:00S 64°30' W 062°18'7 6.5 070 / 24979.3 -5.5-7.7-1.0
2018-May-27 10:00S 64°24' W 062°12'8 7.9 060 / 23979.6 -5.6-7.4-1.1
2018-May-27 09:00S 64°18' W 062°00'7 6.5 060 / 14980.3 -6.1-8.4-1.3
2018-May-27 08:00S 64°12' W 061°54'3 2.6 050 / 11980.6 -5.5-8.2-1.5
2018-May-27 07:00S 64°12' W 061°48'1212.3 060 / 9980.7 -5.0-8.5-1.3
2018-May-27 06:00S 64°00' W 061°42'7 6.6 080 / 13980.6 -4.9-8.4-1.3
2018-May-27 05:00S 63°54' W 061°36'1414.4 080 / 14981.0 -4.6-7.7-1.4
2018-May-27 04:00S 63°42' W 061°18'8 8.0 070 / 17981.2 -4.7-7.1-1.2
2018-May-27 03:00S 63°36' W 061°06'1414.4 080 / 14981.8 -4.7-7.4-1.3
2018-May-27 02:00S 63°24' W 060°48'1010.1 060 / 13982.2 -4.7-7.5-1.4
2018-May-27 01:00S 63°18' W 060°30'7 6.6 060 / 13982.4 -5.3-8.4-1.7
2018-May-27 00:00S 63°12' W 060°24'8 8.1 080 / 11982.7 -4.6-8.4-1.7
2018-May-26 23:00S 63°06' W 060°12'3 2.7 090 / 12982.8 -4.5-7.8-1.7
2018-May-26 22:00S 63°06' W 060°06'8 8.1 100 / 13982.9 -4.6-7.0-1.8
2018-May-26 21:00S 63°00' W 059°54'7 6.6 120 / 12983.0 -5.2-6.6-1.7
2018-May-26 20:00S 62°54' W 059°48'8 8.1 120 / 12983.0 -5.4-6.6-1.7
2018-May-26 19:00S 62°48' W 059°36'1010.2 120 / 13983.0 -4.8-6.7-1.6
2018-May-26 18:00S 62°42' W 059°18'1313.2 100 / 16983.0 -4.2-6.2-1.6
2018-May-26 17:00S 62°30' W 059°06'1010.3 110 / 15983.2 -3.7-6.0-1.1
2018-May-26 16:00S 62°24' W 058°48'1212.3 080 / 9983.6 -3.7-8.4-0.2
2018-May-26 15:00S 62°12' W 058°42'6 5.6 070 / 7983.8 -4.8-8.7-0.4
2018-May-26 14:00S 62°12' W 058°54'0 0.0 090 / 8984.4 -4.9-8.6-0.2
2018-May-26 13:00S 62°12' W 058°54'3 2.8 120 / 8984.9 -5.6-7.4-0.4
2018-May-26 12:00S 62°12' W 058°48'7 6.6 120 / 11985.2 -5.0-8.7-0.2
2018-May-26 11:00S 62°18' W 058°42'0 0.0 120 / 6985.8 -4.3-10.9-0.2
2018-May-26 10:00S 62°18' W 058°42'7 6.6 130 / 5986.6 -4.3-9.8-0.3
2018-May-26 09:00S 62°24' W 058°48'0 0.0 150 / 6987.0 -4.5-8.4-0.2
2018-May-26 08:00S 62°24' W 058°48'0 0.0 180 / 5987.4 -4.4-7.3-0.2
2018-May-26 07:00S 62°24' W 058°48'7 6.6 220 / 8987.9 -3.0-8.0-0.1
2018-May-26 06:00S 62°18' W 058°42'0 0.0 230 / 6988.0 -2.5-9.7-0.1
2018-May-26 05:00S 62°18' W 058°42'7 6.6 230 / 8988.4 -3.6-8.9-0.1
2018-May-26 04:00S 62°24' W 058°48'0 0.0 250 / 8989.0 -2.8-8.8-0.1
2018-May-26 03:00S 62°24' W 058°48'7 6.6 260 / 12989.2 -3.0-8.4-0.1
2018-May-26 02:00S 62°18' W 058°42'0 0.0 270 / 13989.5 -3.1-8.5-0.1
2018-May-26 01:00S 62°18' W 058°42'7 6.6 270 / 12990.1 -3.0-8.7-0.1
2018-May-26 00:00S 62°24' W 058°48'0 0.0 270 / 11990.5 -2.8-8.7-0.1
2018-May-25 23:00S 62°24' W 058°48'7 6.6 280 / 10990.9 -3.3-8.3-0.1
2018-May-25 22:00S 62°18' W 058°42'0 0.0 230 / 8991.1 -3.3-7.6-0.2
2018-May-25 21:00S 62°18' W 058°42'0 0.0 270 / 13991.4 -3.5-7.3-0.1
2018-May-25 20:00S 62°18' W 058°42'0 0.0 270 / 13991.7 -3.3-6.7-0.1
2018-May-25 19:00S 62°18' W 058°42'7 6.6 230 / 13992.1 -3.2-6.8-0.5
2018-May-25 18:00S 62°24' W 058°48'1010.3 240 / 14992.0 -3.2-8.0-1.4
2018-May-25 17:00S 62°30' W 059°06'1514.6 240 / 18992.0 -3.3-9.0-1.4
2018-May-25 16:00S 62°42' W 059°24'8 8.1 240 / 20992.0 -3.3-8.4-1.5
2018-May-25 15:00S 62°48' W 059°36'1514.5 240 / 20991.8 -3.3-8.6-1.7
2018-May-25 14:00S 63°00' W 059°54'1010.1 250 / 21991.5 -3.3-8.4-1.6
2018-May-25 13:00S 63°06' W 060°12'8 8.1 240 / 21991.1 -3.2-7.7-1.7
2018-May-25 12:00S 63°12' W 060°24'1414.5 240 / 20990.4 -2.9-8.0-1.4
2018-May-25 11:00S 63°24' W 060°42'8 8.0 230 / 13990.1 -2.8-8.7-1.2
2018-May-25 10:00S 63°30' W 060°54'1414.4 200 / 12990.0 -3.0-8.6-1.2
2018-May-25 09:00S 63°42' W 061°12'8 8.0 190 / 12989.6 -3.0-8.8-1.2
2018-May-25 08:00S 63°48' W 061°24'10 9.9 180 / 9989.3 -2.5-9.6-1.2
2018-May-25 07:00S 63°54' W 061°42'1212.3 230 / 9988.9 -2.8-9.8-1.2
2018-May-25 06:00S 64°06' W 061°48'1313.1 220 / 24988.3 -3.3-8.9-1.0
2018-May-25 05:00S 64°18' W 062°00'10 9.8 230 / 27988.0 -3.4-8.2-0.9
2018-May-25 04:00S 64°24' W 062°18'10 9.8 220 / 24988.2 -3.4-8.5-0.7
2018-May-25 03:00S 64°30' W 062°36'1211.9 230 / 26988.1 -3.7-7.5-0.6
2018-May-25 02:00S 64°36' W 063°00'1313.0 260 / 20987.9 -3.1-9.2-0.5
2018-May-25 01:00S 64°48' W 063°12'8 7.9 210 / 13987.3 -3.5-9.9-0.7
2018-May-25 00:00S 64°54' W 063°24'8 7.6 250 / 17986.9 -3.5-9.7-0.6
2018-May-24 23:00S 64°54' W 063°42'1313.0 210 / 14986.6 -3.7-10.9-0.6
2018-May-24 22:00S 65°06' W 063°54'3 2.5 210 / 18986.2 -3.8-9.7-0.9
2018-May-24 21:00S 65°06' W 064°00'8 7.8 180 / 14985.7 -3.7-9.8-1.3
2018-May-24 20:00S 65°12' W 064°12'0 0.0 200 / 19984.8 -2.8-8.8-1.3
2018-May-24 19:00S 65°12' W 064°12'0 0.0 230 / 20984.0 -2.8-9.2-1.3
2018-May-24 18:00S 65°12' W 064°12'8 7.8 230 / 18983.0 -2.4-9.0-1.3
2018-May-24 17:00S 65°06' W 064°00'7 6.5 230 / 11982.9 -2.7-10.8-1.1
2018-May-24 16:00S 65°00' W 063°54'8 7.9 230 / 13982.1 -3.1-11.8-0.7
2018-May-24 15:00S 64°54' W 063°42'7 6.5 250 / 18981.8 -3.6-10.6-0.4
2018-May-24 14:00S 64°48' W 063°48'8 7.9 250 / 18982.2 -4.6-11.2-0.4
2018-May-24 13:00S 64°42' W 064°00'0 0.0 250 / 19981.8 -4.2-12.2-0.1
2018-May-24 12:00S 64°42' W 064°00'0 0.0 250 / 19981.3 -4.4-12.3
2018-May-24 11:00S 64°42' W 064°00'0 0.0 240 / 18980.8 -4.2-11.6
2018-May-24 10:00S 64°42' W 064°00'0 0.0 260 / 19980.2 -3.9-10.2
2018-May-24 09:00S 64°42' W 064°00'0 0.0 260 / 19979.8 -3.6-9.2
2018-May-24 08:00S 64°42' W 064°00'0 0.0 250 / 19979.3 -4.0-6.1
2018-May-24 07:00S 64°42' W 064°00'0 0.0 310 / 14979.6 -3.2-6.6
2018-May-24 06:00S 64°42' W 064°00'0 0.0 290 / 18979.4 -2.5-7.2
2018-May-24 05:00S 64°42' W 064°00'0 0.0 280 / 20979.2 -2.5-5.2
2018-May-24 04:00S 64°42' W 064°00'0 0.0 280 / 27977.9 -2.4-3.5
2018-May-24 03:00S 64°42' W 064°00'0 0.0 010 / 26976.6 -0.7-2.4
2018-May-24 02:00S 64°42' W 064°00'0 0.0 050 / 15979.7 -1.6-2.8
2018-May-24 01:00S 64°42' W 064°00'0 0.0 010 / 17981.7 -0.7-2.8
2018-May-24 00:00S 64°42' W 064°00'0 0.0 350 / 16983.8 -0.8-2.6
2018-May-23 23:00S 64°42' W 064°00'0 0.0 010 / 25985.1 -1.1-3.2
2018-May-23 22:00S 64°42' W 064°00'0 0.0 020 / 29986.4 -1.3-4.6
2018-May-23 21:00S 64°42' W 064°00'0 0.0 020 / 33987.3 -1.8-5.0
2018-May-23 20:00S 64°42' W 064°00'0 0.0 020 / 36988.3 -2.4-5.9
2018-May-23 19:00S 64°42' W 064°00'0 0.0 020 / 29989.9 -2.5-7.0
2018-May-23 18:00S 64°42' W 064°00'0 0.0 020 / 23991.4 -2.8-7.6
2018-May-23 17:00S 64°42' W 064°00'0 0.0 020 / 17992.8 -3.1-8.2
2018-May-23 16:00S 64°42' W 064°00'0 0.0 040 / 11993.9 -3.8-8.5
2018-May-23 15:00S 64°42' W 064°00'0 0.0 360 / 7994.4 -3.5-8.6
2018-May-23 14:00S 64°42' W 064°00'0 0.0 320 / 4994.7 -3.0-8.7-0.5
2018-May-23 13:00S 64°42' W 064°00'7 6.5 240 / 6994.7 -3.3-9.0-0.4
2018-May-23 12:00S 64°48' W 063°54'5 5.1 250 / 12994.3 -3.3-9.0-0.4
2018-May-23 11:00S 64°48' W 063°42'5 5.1 260 / 16993.9 -3.1-8.5-0.3
2018-May-23 10:00S 64°48' W 063°30'8 7.9 250 / 17993.8 -2.4-7.7-0.3
2018-May-23 09:00S 64°42' W 063°18'5 5.1 240 / 20993.1 -2.7-6.8-0.5
2018-May-23 08:00S 64°42' W 063°06'8 7.9 250 / 26991.5 -2.8-6.6-0.4
2018-May-23 07:00S 64°36' W 062°54'8 7.9 240 / 25990.9 -1.9-5.5-0.5
2018-May-23 06:00S 64°30' W 062°42'1010.3 230 / 26989.8 -1.5-5.3-0.6
2018-May-23 05:00S 64°30' W 062°18'1313.1 240 / 29988.6 -0.9-4.5-0.7
2018-May-23 04:00S 64°18' W 062°06'8 7.9 230 / 25988.4 -0.2-3.4-0.9
2018-May-23 03:00S 64°12' W 061°54'7 6.5 210 / 8989.5 -0.8-2.3-1.4
2018-May-23 02:00S 64°06' W 061°48'7 6.5 090 / 7989.4 -0.9-2.8-1.2
2018-May-23 01:00S 64°00' W 061°42'1313.1 270 / 17988.6 -1.1-3.4-1.2
2018-May-23 00:00S 63°48' W 061°30'7 6.6 260 / 28988.9 -1.7-3.6-0.9
2018-May-22 23:00S 63°42' W 061°24'1212.0 260 / 31988.8 -1.7-3.4-0.9
2018-May-22 22:00S 63°30' W 061°24'1212.3 250 / 31988.6 -1.4-2.7-0.9
2018-May-22 21:00S 63°18' W 061°30'7 6.6 240 / 26989.7 -1.0-2.1-0.6
2018-May-22 20:00S 63°12' W 061°36'1313.2 240 / 26989.6 -0.7-1.4-0.1
2018-May-22 19:00S 63°00' W 061°48'1212.3 230 / 23989.7 -0.1-0.9-0.0
2018-May-22 18:00S 62°48' W 061°54'8 8.1 250 / 18990.4 -0.1-0.5-0.1
2018-May-22 17:00S 62°42' W 062°06'1313.2 240 / 20991.2 -0.5-0.9-0.0
2018-May-22 16:00S 62°30' W 062°18'7 6.6 250 / 21991.5 -0.7-1.0-0.0
2018-May-22 15:00S 62°24' W 062°24'1212.3 250 / 22991.6 -0.9-1.2-0.2
2018-May-22 14:00S 62°12' W 062°30'1212.3 250 / 20992.1 -1.0-1.2-0.1
2018-May-22 13:00S 62°00' W 062°36'6 6.0 250 / 21992.3 -0.7-1.0-0.1
2018-May-22 12:00S 61°54' W 062°36'1212.3 240 / 22992.4 -0.7-1.0-0.1
2018-May-22 11:00S 61°42' W 062°42'1212.0 250 / 21992.4 -0.7-1.0-0.1
2018-May-22 10:00S 61°30' W 062°42'1212.3 250 / 21992.5 -0.6-1.0-0.0
2018-May-22 09:00S 61°18' W 062°48'7 6.7 250 / 22992.5 -0.1-0.5 0.2
2018-May-22 08:00S 61°12' W 062°54'1212.0 260 / 21992.9 -0.0-0.4-0.0
2018-May-22 07:00S 61°00' W 062°54'1212.3 280 / 16993.5 -0.0-0.4-0.1
2018-May-22 06:00S 60°48' W 063°00'1212.0 280 / 14994.1 0.3-0.3-0.2
2018-May-22 05:00S 60°36' W 063°00'7 6.7 280 / 12994.6 0.1-0.4-0.2
2018-May-22 04:00S 60°30' W 063°06'1212.4 270 / 10994.7 -0.0-0.5-0.2
2018-May-22 03:00S 60°18' W 063°12'1212.0 270 / 10994.8 -0.0-0.5-0.2
2018-May-22 02:00S 60°06' W 063°12'1212.4 260 / 8994.7 0.4-0.3-0.2
2018-May-22 01:00S 59°54' W 063°18'7 6.7 260 / 9994.5 0.9-0.2-0.0
2018-May-22 00:00S 59°48' W 063°24'1212.0 260 / 6994.3 1.8 0.6 0.1
2018-May-21 23:00S 59°36' W 063°24'1212.4 290 / 6994.2 1.9 0.7 0.1
2018-May-21 22:00S 59°24' W 063°30'1212.0 310 / 7994.0 1.9 1.0 0.1
2018-May-21 21:00S 59°12' W 063°30'7 6.7 320 / 8993.8 2.2 1.1 0.4
2018-May-21 20:00S 59°06' W 063°36'1212.4 330 / 8993.4 3.1 1.6 0.9
2018-May-21 19:00S 58°54' W 063°42'1212.0 330 / 9993.4 4.0 2.3 2.5
2018-May-21 18:00S 58°42' W 063°42'1212.4 340 / 11993.5 4.3 2.7 3.2
2018-May-21 17:00S 58°30' W 063°48'408 9.5 330 / 10993.6 4.0 2.4 3.0
2018-May-19 22:00S 52°36' W 069°48'50 8.3 010 / 101001.4 6.9 4.2
2018-May-19 16:00S 53°06' W 070°54'0 0.0 020 / 41002.7 7.5 2.8
2018-May-19 15:00S 53°06' W 070°54'0 0.0 260 / 11003.3 5.9 2.1
2018-May-19 14:00S 53°06' W 070°54'0 0.0 290 / 21003.6 4.1 1.8
2018-May-19 13:00S 53°06' W 070°54'0 0.0 290 / 11004.0 2.8 1.0
2018-May-19 12:00S 53°06' W 070°54'0 0.0 280 / 31004.0 3.9 1.8
2018-May-19 11:00S 53°06' W 070°54'0 0.0 010 / 61004.1 4.1 2.1
2018-May-19 10:00S 53°06' W 070°54'0 0.0 030 / 71004.5 3.4 2.1
2018-May-19 09:00S 53°06' W 070°54'0 0.0 010 / 71005.2 4.0 2.5
2018-May-19 08:00S 53°06' W 070°54'0 0.0 010 / 121005.5 4.0 2.5
2018-May-19 07:00S 53°06' W 070°54'0 0.0 020 / 131006.4 3.9 2.5
2018-May-19 06:00S 53°06' W 070°54'0 0.0 030 / 141007.5 4.1 2.4
2018-May-19 05:00S 53°06' W 070°54'0 0.0 030 / 111008.9 3.7 1.6
2018-May-19 04:00S 53°06' W 070°54'0 0.0 030 / 101010.2 3.3 0.8
2018-May-19 03:00S 53°06' W 070°54'0 0.0 030 / 91011.3 3.3 0.7
2018-May-19 02:00S 53°06' W 070°54'0 0.0 020 / 51012.1 3.8 1.0
2018-May-19 01:00S 53°06' W 070°54'0 0.0 010 / 31013.0 3.6 0.7
2018-May-19 00:00S 53°06' W 070°54'0 0.0 350 / 51014.0 2.7-0.1
2018-May-18 23:00S 53°06' W 070°54'0 0.0 360 / 61014.8 2.0-0.5
2018-May-18 22:00S 53°06' W 070°54'0 0.0 030 / 91015.5 1.7-0.2
2018-May-18 21:00S 53°06' W 070°54'0 0.0 030 / 71015.8 2.0 0.1
2018-May-18 20:00S 53°06' W 070°54'0 0.0 040 / 81016.3 2.7 0.1
2018-May-18 19:00S 53°06' W 070°54'0 0.0 030 / 51016.7 3.3 0.4
2018-May-18 18:00S 53°06' W 070°54'0 0.0 040 / 61017.1 3.4 0.3
2018-May-18 17:00S 53°06' W 070°54'0 0.0 040 / 41017.5 4.1-0.0
2018-May-18 16:00S 53°06' W 070°54'0 0.0 040 / 51018.0 4.5 0.1
2018-May-18 15:00S 53°06' W 070°54'0 0.0 360 / 41018.1 6.4 0.6
2018-May-18 14:00S 53°06' W 070°54'0 0.0 350 / 51018.1 4.6 0.9
2018-May-18 13:00S 53°06' W 070°54'0 0.0 320 / 51017.8 3.1 0.9
2018-May-18 12:00S 53°06' W 070°54'0 0.0 330 / 31017.4 3.7 1.4
2018-May-18 11:00S 53°06' W 070°54'0 0.0 340 / 21017.0 3.0 0.7
2018-May-18 10:00S 53°06' W 070°54'0 0.0 320 / 11017.0 3.1 0.7
2018-May-18 09:00S 53°06' W 070°54'0 0.0 260 / 11016.7 3.3 0.6
2018-May-18 08:00S 53°06' W 070°54'0 0.0 270 / 21016.6 2.7 0.5
2018-May-18 07:00S 53°06' W 070°54'0 0.0 310 / 21016.1 2.0-0.0
2018-May-18 06:00S 53°06' W 070°54'0 0.0 310 / 21015.8 3.0 0.9
2018-May-18 05:00S 53°06' W 070°54'0 0.0 280 / 31015.4 3.6 1.4
2018-May-18 04:00S 53°06' W 070°54'0 0.0 270 / 41015.2 4.9 1.8
2018-May-18 03:00S 53°06' W 070°54'0 0.0 230 / 51015.0 5.6 2.2
2018-May-18 02:00S 53°06' W 070°54'0 0.0 240 / 51014.7 5.3 1.8
2018-May-18 01:00S 53°06' W 070°54'0 0.0 240 / 51014.4 4.9 1.6
2018-May-18 00:00S 53°06' W 070°54'   230 / 51014.3 4.9 1.4

Dump ship's entire track history